Time;durP1;ratioP1;P1;durP2;ratioP2;P2;SDS_P1;SDS_P2;PMS_P1;PMS_P2;Temp;Humidity;BMP_temperature;BMP_pressure;BME280_temperature;BME280_humidity;BME280_pressure;Samples;Min_cycle;Max_cycle;Signal;HPM_P1;HPM_P2
2023/08/11 00:00:27;;;;;;;6.15;2.88;;;;;;;14.24;98.82;97746.03;5004302;28;20071;-59
2023/08/11 00:02:54;;;;;;;4.30;2.78;;;;;;;14.07;99.59;97750.88;5009035;28;20043;-58
2023/08/11 00:05:20;;;;;;;5.72;3.00;;;;;;;13.87;100.00;97744.25;4989925;28;20096;-58
2023/08/11 00:07:50;;;;;;;5.57;3.30;;;;;;;13.85;100.00;97749.94;4984854;28;20037;-58
2023/08/11 00:10:18;;;;;;;7.03;3.65;;;;;;;13.89;100.00;97751.06;5016877;28;20054;-58
2023/08/11 00:12:45;;;;;;;8.27;2.92;;;;;;;13.78;100.00;97752.06;4995114;28;20069;-59
2023/08/11 00:15:12;;;;;;;5.30;2.97;;;;;;;13.74;100.00;97756.41;4979140;28;20521;-58
2023/08/11 00:17:41;;;;;;;4.95;2.88;;;;;;;13.93;100.00;97750.53;4987376;28;20067;-59
2023/08/11 00:20:08;;;;;;;5.70;3.13;;;;;;;14.05;100.00;97756.59;4974674;28;20055;-59
2023/08/11 00:22:37;;;;;;;4.65;2.83;;;;;;;14.01;100.00;97763.66;4999120;28;20043;-58
2023/08/11 00:25:04;;;;;;;5.60;3.10;;;;;;;14.08;99.87;97750.59;4974684;28;20047;-56
2023/08/11 00:27:30;;;;;;;6.68;2.90;;;;;;;13.84;100.00;97748.31;4993863;28;20048;-57
2023/08/11 00:29:58;;;;;;;5.40;2.80;;;;;;;13.57;100.00;97756.59;4993734;28;20039;-58
2023/08/11 00:32:25;;;;;;;6.30;3.30;;;;;;;13.29;100.00;97759.34;4991998;28;20069;-58
2023/08/11 00:34:51;;;;;;;5.45;3.28;;;;;;;13.30;100.00;97760.97;4988089;28;20047;-58
2023/08/11 00:37:18;;;;;;;4.82;2.95;;;;;;;13.23;100.00;97761.22;5024703;28;20039;-58
2023/08/11 00:39:45;;;;;;;5.80;3.08;;;;;;;13.43;100.00;97761.63;5013694;28;20046;-59
2023/08/11 00:42:12;;;;;;;5.82;3.15;;;;;;;13.48;100.00;97758.97;5005977;28;20054;-59
2023/08/11 00:44:39;;;;;;;6.25;3.47;;;;;;;13.30;100.00;97757.47;5007938;28;20042;-59
2023/08/11 00:47:06;;;;;;;8.98;4.38;;;;;;;13.16;100.00;97763.31;4975750;28;20055;-59
2023/08/11 00:49:34;;;;;;;5.88;3.20;;;;;;;13.09;100.00;97755.38;5024948;28;20054;-59
2023/08/11 00:52:01;;;;;;;5.05;3.13;;;;;;;13.25;100.00;97755.50;4985135;28;20490;-59
2023/08/11 00:54:28;;;;;;;5.50;3.38;;;;;;;13.31;100.00;97754.50;5001517;28;20054;-58
2023/08/11 00:56:55;;;;;;;6.85;3.38;;;;;;;13.36;100.00;97754.53;4994296;28;20036;-59
2023/08/11 00:59:24;;;;;;;5.65;3.38;;;;;;;13.45;100.00;97767.63;5006968;28;20038;-60
2023/08/11 01:01:50;;;;;;;5.22;3.28;;;;;;;13.47;100.00;97765.47;5031391;28;20040;-59
2023/08/11 01:04:17;;;;;;;4.80;3.00;;;;;;;13.51;100.00;97763.88;4998838;28;20053;-59
2023/08/11 01:06:49;;;;;;;5.65;3.10;;;;;;;13.59;100.00;97759.84;5012481;28;20051;-59
2023/08/11 01:09:24;;;;;;;;;;;;;;;13.51;100.00;97758.44;5022389;28;20047;-58
2023/08/11 01:12:18;;;;;;;7.13;3.10;;;;;;;13.62;100.00;97759.34;5002056;28;19929;-58
2023/08/11 01:14:56;;;;;;;5.40;2.88;;;;;;;13.70;100.00;97760.72;5010369;28;20123;-59
2023/08/11 01:17:24;;;;;;;5.50;2.90;;;;;;;13.74;100.00;97759.13;4982130;28;20823;-59
2023/08/11 01:19:50;;;;;;;4.93;3.08;;;;;;;13.67;100.00;97769.44;5009320;28;20518;-59
2023/08/11 01:22:21;;;;;;;5.22;3.10;;;;;;;13.67;100.00;97767.53;5004315;28;20054;-58
2023/08/11 01:24:48;;;;;;;6.47;2.87;;;;;;;13.77;100.00;97770.31;4985090;28;21276;-59
2023/08/11 01:27:15;;;;;;;6.30;3.10;;;;;;;13.79;100.00;97762.69;4993000;28;20042;-58
2023/08/11 01:29:42;;;;;;;5.30;3.17;;;;;;;13.70;100.00;97763.47;4992555;28;20036;-58
2023/08/11 01:32:08;;;;;;;10.45;4.05;;;;;;;13.51;100.00;97759.28;4988164;28;20047;-58
2023/08/11 01:34:35;;;;;;;6.28;3.40;;;;;;;13.56;100.00;97763.13;5023527;28;20042;-58
2023/08/11 01:37:03;;;;;;;5.95;3.53;;;;;;;13.54;100.00;97763.38;4999995;28;20097;-59
2023/08/11 01:39:31;;;;;;;7.22;3.58;;;;;;;13.61;100.00;97772.13;4999371;28;20044;-59
2023/08/11 01:41:58;;;;;;;5.80;3.35;;;;;;;13.62;100.00;97767.50;4999366;28;20094;-59
2023/08/11 01:44:25;;;;;;;7.35;3.40;;;;;;;13.60;100.00;97754.16;5000060;28;20039;-58
2023/08/11 01:46:55;;;;;;;5.63;3.80;;;;;;;13.72;100.00;97756.69;5020666;28;20117;-58
2023/08/11 01:49:24;;;;;;;6.28;3.30;;;;;;;13.78;100.00;97761.06;5000658;28;20125;-59
2023/08/11 01:51:51;;;;;;;6.53;3.50;;;;;;;13.68;100.00;97754.75;4989719;28;20130;-59
2023/08/11 01:54:19;;;;;;;5.93;3.50;;;;;;;13.63;100.00;97752.81;5015186;28;20066;-58
2023/08/11 01:56:46;;;;;;;6.38;3.40;;;;;;;13.35;100.00;97752.84;4982399;28;20047;-60
2023/08/11 01:59:15;;;;;;;7.00;3.65;;;;;;;13.35;100.00;97757.50;5049646;28;20037;-58
2023/08/11 02:01:42;;;;;;;6.10;3.17;;;;;;;13.33;100.00;97762.38;5025714;28;20059;-59
2023/08/11 02:04:08;;;;;;;4.68;3.10;;;;;;;13.46;100.00;97764.66;5005428;28;20048;-59
2023/08/11 02:06:39;;;;;;;5.22;3.20;;;;;;;13.39;100.00;97756.69;5001544;28;20077;-58
2023/08/11 02:09:08;;;;;;;7.40;3.53;;;;;;;13.42;100.00;97758.09;5003497;28;20136;-58
2023/08/11 02:11:37;;;;;;;5.90;3.40;;;;;;;13.44;100.00;97753.22;5006807;28;20501;-58
2023/08/11 02:14:04;;;;;;;10.07;3.40;;;;;;;13.31;100.00;97759.09;4998132;28;20097;-58
2023/08/11 02:16:32;;;;;;;5.57;3.22;;;;;;;13.29;100.00;97756.63;5009159;28;20039;-59
2023/08/11 02:18:59;;;;;;;6.32;3.47;;;;;;;13.22;100.00;97761.47;4980725;28;20498;-59
2023/08/11 02:21:27;;;;;;;9.40;3.90;;;;;;;13.29;100.00;97762.06;5003195;28;20080;-59
2023/08/11 02:23:54;;;;;;;5.80;3.60;;;;;;;13.25;100.00;97755.50;4998462;28;20043;-58
2023/08/11 02:26:22;;;;;;;5.50;3.45;;;;;;;13.23;100.00;97752.25;4985498;28;20640;-59
2023/08/11 02:28:49;;;;;;;8.68;3.55;;;;;;;13.30;100.00;97757.47;4989851;28;20070;-59
2023/08/11 02:31:16;;;;;;;7.18;3.50;;;;;;;13.36;100.00;97750.97;5000285;28;20039;-58
2023/08/11 02:33:43;;;;;;;6.50;3.38;;;;;;;13.47;100.00;97754.59;4998588;28;20529;-58
2023/08/11 02:36:10;;;;;;;7.68;3.47;;;;;;;13.60;100.00;97754.16;5032063;28;20043;-58
2023/08/11 02:38:36;;;;;;;6.45;3.30;;;;;;;13.60;100.00;97753.34;4968047;28;20046;-59
2023/08/11 02:41:03;;;;;;;5.13;3.22;;;;;;;13.55;100.00;97742.41;4994314;28;20127;-59
2023/08/11 02:43:30;;;;;;;6.15;3.70;;;;;;;13.45;100.00;97754.03;4996151;28;20048;-58
2023/08/11 02:45:56;;;;;;;6.78;3.20;;;;;;;13.38;100.00;97744.19;4990933;28;20063;-59
2023/08/11 02:48:23;;;;;;;10.48;4.32;;;;;;;13.26;100.00;97749.00;4967144;28;20038;-60
2023/08/11 02:50:50;;;;;;;6.53;3.53;;;;;;;13.09;100.00;97751.84;4990575;28;20052;-59
2023/08/11 02:53:16;;;;;;;6.72;3.92;;;;;;;12.93;100.00;97751.72;5009580;28;20545;-58
2023/08/11 02:55:43;;;;;;;6.72;3.70;;;;;;;12.90;100.00;97754.94;4978478;28;20133;-59
2023/08/11 02:58:10;;;;;;;6.57;4.55;;;;;;;12.81;100.00;97749.16;4999974;28;20055;-59
2023/08/11 03:00:37;;;;;;;6.10;3.97;;;;;;;12.66;100.00;97757.16;4993643;28;20050;-59
2023/08/11 03:03:03;;;;;;;7.88;4.10;;;;;;;12.64;100.00;97756.59;5012738;28;20072;-59
2023/08/11 03:05:30;;;;;;;5.80;3.72;;;;;;;12.56;100.00;97760.59;4987978;28;20153;-59
2023/08/11 03:07:57;;;;;;;7.75;4.05;;;;;;;12.60;100.00;97759.00;4992688;28;20043;-59
2023/08/11 03:10:24;;;;;;;5.80;4.35;;;;;;;12.55;100.00;97762.50;4989108;28;20607;-59
2023/08/11 03:12:50;;;;;;;8.40;4.72;;;;;;;12.56;100.00;97760.59;5004828;28;20038;-59
2023/08/11 03:15:17;;;;;;;6.93;4.07;;;;;;;12.49;100.00;97760.78;4992533;28;20046;-57
2023/08/11 03:17:44;;;;;;;8.35;4.43;;;;;;;12.49;100.00;97764.34;4981385;28;20118;-57
2023/08/11 03:20:15;;;;;;;6.53;4.00;;;;;;;12.53;100.00;97755.69;4972800;28;20051;-59
2023/08/11 03:22:44;;;;;;;7.13;4.10;;;;;;;12.64;100.00;97751.19;5000229;28;20039;-59
2023/08/11 03:25:13;;;;;;;7.93;3.60;;;;;;;12.56;100.00;97757.88;4987463;28;20424;-58
2023/08/11 03:27:41;;;;;;;5.82;3.92;;;;;;;12.64;100.00;97751.97;4992318;28;20044;-59
2023/08/11 03:30:13;;;;;;;6.88;3.72;;;;;;;12.79;100.00;97751.31;5006968;28;21251;-59
2023/08/11 03:32:42;;;;;;;6.85;3.95;;;;;;;12.90;100.00;97741.34;5003677;28;20077;-58
2023/08/11 03:35:09;;;;;;;6.70;4.05;;;;;;;13.01;100.00;97736.81;4978994;28;20051;-58
2023/08/11 03:37:37;;;;;;;5.82;3.50;;;;;;;12.99;100.00;97745.25;4978871;28;20047;-58
2023/08/11 03:40:12;;;;;;;5.72;3.70;;;;;;;12.98;100.00;97745.50;4989440;28;20122;-61
2023/08/11 03:42:43;;;;;;;9.25;4.35;;;;;;;13.04;100.00;97743.66;5008737;28;20040;-59
2023/08/11 03:45:14;;;;;;;5.88;3.72;;;;;;;13.06;100.00;97741.50;5009635;28;20044;-58
2023/08/11 03:47:42;;;;;;;6.55;3.80;;;;;;;13.05;100.00;97743.38;5003538;28;20136;-59
2023/08/11 03:50:15;;;;;;;6.75;3.58;;;;;;;13.12;100.00;97754.06;5003366;28;20104;-58
2023/08/11 03:52:41;;;;;;;6.68;3.40;;;;;;;13.25;100.00;97748.19;4997666;28;20035;-58
2023/08/11 03:55:09;;;;;;;6.35;3.38;;;;;;;13.17;100.00;97745.13;5000645;28;20058;-57
2023/08/11 03:57:37;;;;;;;6.60;3.50;;;;;;;13.13;100.00;97739.38;5000164;28;20051;-59
2023/08/11 04:00:14;;;;;;;5.03;3.40;;;;;;;13.01;100.00;97744.97;4987849;28;20509;-59
2023/08/11 04:02:48;;;;;;;8.13;3.60;;;;;;;12.87;100.00;97755.47;5005485;28;20038;-59
2023/08/11 04:05:16;;;;;;;6.55;3.85;;;;;;;12.80;100.00;97752.13;4998984;28;20373;-58
2023/08/11 04:07:43;;;;;;;6.82;3.95;;;;;;;12.74;100.00;97751.25;4978243;28;20046;-59
2023/08/11 04:10:11;;;;;;;6.82;3.35;;;;;;;12.68;100.00;97741.44;4994687;28;20550;-58
2023/08/11 04:12:37;;;;;;;5.90;3.70;;;;;;;12.70;100.00;97753.69;5010531;28;20153;-58
2023/08/11 04:15:05;;;;;;;5.25;3.40;;;;;;;12.79;100.00;97754.03;5029065;28;20043;-59
2023/08/11 04:17:33;;;;;;;5.68;3.55;;;;;;;12.63;100.00;97761.22;5001270;28;20120;-59
2023/08/11 04:20:00;;;;;;;5.38;3.22;;;;;;;12.75;100.00;97752.91;5013772;28;20039;-59
2023/08/11 04:22:28;;;;;;;5.50;3.63;;;;;;;12.80;100.00;97752.97;5003104;28;20075;-58
2023/08/11 04:25:07;;;;;;;11.40;3.65;;;;;;;12.84;100.00;97748.66;5000810;28;20146;-59
2023/08/11 04:27:33;;;;;;;5.85;3.92;;;;;;;12.84;100.00;97751.38;5013281;28;20046;-59
2023/08/11 04:30:00;;;;;;;9.30;3.63;;;;;;;12.81;100.00;97751.88;5001126;28;20383;-59
2023/08/11 04:32:26;;;;;;;8.07;3.70;;;;;;;12.81;100.00;97756.50;5002899;28;20125;-59
2023/08/11 04:34:53;;;;;;;7.75;3.92;;;;;;;12.85;100.00;97747.56;5023306;28;20565;-57
2023/08/11 04:37:20;;;;;;;8.95;3.33;;;;;;;12.97;100.00;97752.03;5008362;28;20092;-58
2023/08/11 04:39:47;;;;;;;6.47;3.45;;;;;;;12.99;100.00;97745.25;4992107;28;20069;-59
2023/08/11 04:42:13;;;;;;;5.47;3.50;;;;;;;12.93;100.00;97742.75;5005933;28;20049;-59
2023/08/11 04:44:41;;;;;;;7.03;4.10;;;;;;;12.73;100.00;97744.19;5009269;28;20108;-57
2023/08/11 04:47:07;;;;;;;6.72;3.50;;;;;;;12.80;100.00;97752.97;4995699;28;20077;-58
2023/08/11 04:49:35;;;;;;;5.55;3.53;;;;;;;12.86;100.00;97753.81;5005512;28;20040;-60
2023/08/11 04:52:01;;;;;;;7.15;3.55;;;;;;;12.90;100.00;97760.38;5009512;28;20075;-59
2023/08/11 04:54:28;;;;;;;6.03;3.63;;;;;;;12.91;100.00;97753.88;5001032;28;20552;-59
2023/08/11 04:56:55;;;;;;;7.18;3.72;;;;;;;12.98;100.00;97749.03;4976525;28;20043;-59
2023/08/11 04:59:22;;;;;;;5.72;3.80;;;;;;;13.02;100.00;97752.06;4964770;28;20526;-58
2023/08/11 05:01:49;;;;;;;6.50;3.78;;;;;;;13.07;100.00;97754.84;4980487;28;20583;-58
2023/08/11 05:04:15;;;;;;;8.88;3.97;;;;;;;13.19;100.00;97753.84;5013588;28;20132;-58
2023/08/11 05:06:42;;;;;;;5.65;3.90;;;;;;;13.29;100.00;97759.34;4967920;28;20077;-59
2023/08/11 05:09:09;;;;;;;5.90;4.18;;;;;;;13.42;100.00;97760.00;4964996;28;20047;-59
2023/08/11 05:11:37;;;;;;;5.57;3.40;;;;;;;13.42;100.00;97765.44;4991783;28;20094;-57
2023/08/11 05:14:03;;;;;;;8.20;4.32;;;;;;;13.51;100.00;97764.72;5011381;28;20694;-58
2023/08/11 05:16:30;;;;;;;5.55;3.50;;;;;;;13.61;100.00;97768.59;4983826;28;20134;-58
2023/08/11 05:18:56;;;;;;;6.53;3.78;;;;;;;13.73;100.00;97768.38;5009253;28;20049;-58
2023/08/11 05:21:23;;;;;;;5.72;3.70;;;;;;;13.84;100.00;97764.66;4986635;28;20040;-59
2023/08/11 05:23:50;;;;;;;5.55;3.63;;;;;;;13.96;100.00;97774.53;5006238;28;20061;-58
2023/08/11 05:26:17;;;;;;;6.03;3.25;;;;;;;14.09;100.00;97778.66;4999204;28;20494;-57
2023/08/11 05:28:44;;;;;;;5.57;3.38;;;;;;;14.18;100.00;97782.50;5001534;28;20049;-58
2023/08/11 05:31:10;;;;;;;6.20;3.47;;;;;;;14.23;100.00;97782.50;5001606;28;20419;-57
2023/08/11 05:33:37;;;;;;;8.98;3.53;;;;;;;14.32;100.00;97785.56;5015672;28;20051;-58
2023/08/11 05:36:04;;;;;;;6.25;3.40;;;;;;;14.39;100.00;97782.59;5012702;28;20054;-58
2023/08/11 05:38:30;;;;;;;4.90;3.40;;;;;;;14.48;100.00;97788.34;4993645;28;20797;-58
2023/08/11 05:40:57;;;;;;;5.50;3.70;;;;;;;14.56;100.00;97780.47;5011158;28;20051;-59
2023/08/11 05:43:23;;;;;;;6.13;3.40;;;;;;;14.64;100.00;97786.50;4996532;28;20679;-59
2023/08/11 05:45:50;;;;;;;5.32;3.17;;;;;;;14.73;100.00;97784.03;4999396;28;20067;-59
2023/08/11 05:48:16;;;;;;;5.97;3.30;;;;;;;14.84;99.38;97788.47;5013493;28;20589;-58
2023/08/11 05:50:45;;;;;;;8.00;3.80;;;;;;;14.92;99.17;97782.47;5013472;28;20577;-59
2023/08/11 05:53:12;;;;;;;6.53;3.17;;;;;;;14.99;99.30;97786.84;5012654;28;20038;-59
2023/08/11 05:55:38;;;;;;;5.15;3.42;;;;;;;15.07;99.54;97778.13;4996671;28;20038;-58
2023/08/11 05:58:05;;;;;;;6.55;2.90;;;;;;;15.14;99.07;97786.06;5000316;28;20039;-58
2023/08/11 06:00:32;;;;;;;7.95;3.35;;;;;;;15.24;99.06;97777.88;5001129;28;20530;-60
2023/08/11 06:02:58;;;;;;;5.85;3.00;;;;;;;15.36;99.30;97774.06;5006006;28;20664;-59
2023/08/11 06:05:26;;;;;;;6.53;3.97;;;;;;;15.46;98.96;97772.16;5016186;28;20042;-59
2023/08/11 06:07:53;;;;;;;6.63;3.53;;;;;;;15.61;99.33;97775.94;5004214;28;20035;-60
2023/08/11 06:10:32;;;;;;;7.15;3.42;;;;;;;15.73;98.91;97773.75;5002218;28;20516;-59
2023/08/11 06:12:59;;;;;;;5.13;3.15;;;;;;;15.89;98.91;97779.19;5009628;28;20170;-60
2023/08/11 06:15:25;;;;;;;5.68;3.38;;;;;;;16.03;99.18;97781.34;4993035;28;20115;-59
2023/08/11 06:17:52;;;;;;;5.05;3.00;;;;;;;16.18;97.66;97780.47;5026771;28;20086;-59
2023/08/11 06:20:19;;;;;;;5.90;3.63;;;;;;;16.29;97.18;97773.88;4985894;28;20501;-58
2023/08/11 06:23:04;;;;;;;5.00;3.00;;;;;;;16.44;96.40;97783.91;5005175;28;20039;-60
2023/08/11 06:25:31;;;;;;;5.43;2.92;;;;;;;16.61;95.78;97778.09;4985036;28;20034;-58
2023/08/11 06:27:57;;;;;;;4.97;2.90;;;;;;;16.77;96.38;97791.69;5010774;28;20055;-59
2023/08/11 06:30:24;;;;;;;5.00;2.97;;;;;;;16.89;95.19;97783.94;4955463;28;20054;-59
2023/08/11 06:32:51;;;;;;;4.47;2.60;;;;;;;16.98;94.24;97784.16;4931310;28;20039;-59
2023/08/11 06:35:17;;;;;;;4.55;2.47;;;;;;;17.13;93.47;97782.44;4924523;28;20098;-58
2023/08/11 06:37:44;;;;;;;4.85;2.72;;;;;;;17.27;92.21;97790.81;4931881;28;20043;-59
2023/08/11 06:40:13;;;;;;;3.97;2.35;;;;;;;17.35;91.82;97776.53;4961490;28;20564;-60
2023/08/11 06:42:39;;;;;;;4.45;2.35;;;;;;;17.48;90.97;97788.75;5012825;28;20701;-60
2023/08/11 06:45:08;;;;;;;5.50;2.40;;;;;;;17.63;86.76;97782.31;5012375;28;20549;-60
2023/08/11 06:47:35;;;;;;;4.95;2.60;;;;;;;17.95;83.88;97785.56;4997347;28;20395;-59
2023/08/11 06:50:03;;;;;;;5.55;2.50;;;;;;;18.17;78.88;97790.53;4999873;28;20110;-59
2023/08/11 06:52:29;;;;;;;4.63;2.90;;;;;;;18.42;82.35;97787.78;4998530;28;20125;-60
2023/08/11 06:54:56;;;;;;;5.43;2.60;;;;;;;18.49;77.87;97785.50;5001853;28;20050;-58
2023/08/11 06:57:22;;;;;;;4.82;2.67;;;;;;;18.65;78.70;97786.09;5009100;28;20458;-59
2023/08/11 06:59:49;;;;;;;4.20;2.20;;;;;;;18.77;76.23;97790.34;5016131;28;20043;-59
2023/08/11 07:02:16;;;;;;;6.22;2.30;;;;;;;18.89;74.85;97787.16;5004465;28;20058;-61
2023/08/11 07:04:42;;;;;;;4.63;2.33;;;;;;;19.04;75.06;97786.13;5021014;28;20042;-60
2023/08/11 07:07:09;;;;;;;4.82;2.65;;;;;;;19.15;75.71;97784.88;5001690;28;20098;-59
2023/08/11 07:09:36;;;;;;;4.55;2.25;;;;;;;19.24;73.20;97779.53;4994566;28;20046;-59
2023/08/11 07:12:03;;;;;;;4.03;2.22;;;;;;;19.36;73.08;97781.81;5014020;28;20438;-60
2023/08/11 07:14:29;;;;;;;5.30;2.40;;;;;;;19.47;72.57;97783.25;5010741;28;20039;-59
2023/08/11 07:16:56;;;;;;;4.00;2.40;;;;;;;19.58;73.72;97785.84;5008335;28;20046;-59
2023/08/11 07:19:22;;;;;;;4.88;2.28;;;;;;;19.68;72.78;97788.41;4994630;28;20049;-59
2023/08/11 07:21:49;;;;;;;3.80;2.10;;;;;;;19.73;71.62;97793.81;5005240;28;20044;-58
2023/08/11 07:24:15;;;;;;;5.28;2.35;;;;;;;19.81;72.86;97784.06;4993800;28;20500;-59
2023/08/11 07:26:42;;;;;;;7.53;2.33;;;;;;;19.89;71.08;97793.53;5014857;28;20520;-60
2023/08/11 07:29:10;;;;;;;5.32;2.72;;;;;;;20.00;71.12;97799.69;4990477;28;20145;-60
2023/08/11 07:31:36;;;;;;;5.63;3.03;;;;;;;20.07;71.06;97793.78;5005063;28;20040;-59
2023/08/11 07:34:03;;;;;;;4.15;2.55;;;;;;;20.14;70.18;97795.03;5019078;28;20042;-58
2023/08/11 07:36:29;;;;;;;4.28;2.50;;;;;;;20.21;69.84;97796.53;5004416;28;20047;-59
2023/08/11 07:38:56;;;;;;;4.82;2.30;;;;;;;20.28;71.16;97806.00;5011574;28;20058;-61
2023/08/11 07:41:42;;;;;;;4.90;2.35;;;;;;;20.38;69.54;97806.94;5015524;28;20043;-59
2023/08/11 07:44:09;;;;;;;4.28;2.50;;;;;;;20.39;69.37;97803.06;5000263;28;20502;-59
2023/08/11 07:46:36;;;;;;;6.75;2.45;;;;;;;20.40;69.70;97805.50;5007383;28;20068;-59
2023/08/11 07:49:02;;;;;;;4.43;2.60;;;;;;;20.46;70.75;97810.91;5006920;28;20042;-60
2023/08/11 07:51:29;;;;;;;4.65;2.03;;;;;;;20.53;71.21;97811.31;5004104;28;20048;-60
2023/08/11 07:53:55;;;;;;;8.10;2.60;;;;;;;20.62;71.71;97814.97;5027610;28;20119;-60
2023/08/11 07:56:22;;;;;;;5.40;2.30;;;;;;;20.77;72.78;97821.25;5011737;28;20043;-60
2023/08/11 07:58:49;;;;;;;6.70;2.55;;;;;;;20.97;70.91;97822.75;5009819;28;20040;-60
2023/08/11 08:01:15;;;;;;;5.28;2.40;;;;;;;21.08;69.84;97820.59;4990989;28;20054;-59
2023/08/11 08:03:42;;;;;;;6.95;2.65;;;;;;;21.24;69.71;97821.06;5008847;28;20066;-61
2023/08/11 08:06:09;;;;;;;5.85;2.40;;;;;;;21.30;69.32;97824.50;5001903;28;20051;-60
2023/08/11 08:08:35;;;;;;;6.28;2.75;;;;;;;21.31;68.07;97824.19;4995042;28;20052;-61
2023/08/11 08:11:03;;;;;;;4.90;2.60;;;;;;;21.37;68.44;97826.84;5010838;28;20047;-60
2023/08/11 08:13:31;;;;;;;5.25;2.90;;;;;;;21.47;67.29;97828.50;4994849;28;20118;-60
2023/08/11 08:15:57;;;;;;;7.18;2.30;;;;;;;21.47;67.25;97832.09;5023375;28;20070;-59
2023/08/11 08:18:24;;;;;;;6.70;2.40;;;;;;;21.53;68.49;97830.03;5014378;28;20058;-60
2023/08/11 08:20:50;;;;;;;5.95;2.70;;;;;;;21.63;67.51;97831.72;4999488;28;20049;-59
2023/08/11 08:23:17;;;;;;;4.15;2.25;;;;;;;21.77;66.89;97831.66;5013696;28;20046;-59
2023/08/11 08:25:44;;;;;;;5.25;2.38;;;;;;;21.95;65.38;97836.16;4998353;28;20035;-60
2023/08/11 08:28:13;;;;;;;4.75;2.30;;;;;;;;;;5003421;28;20051;-59
2023/08/11 08:30:41;;;;;;;5.43;2.40;;;;;;;22.11;64.26;97830.22;5014705;28;20121;-59
2023/08/11 08:33:07;;;;;;;6.57;2.95;;;;;;;22.12;63.84;97834.63;5019641;28;20135;-60
2023/08/11 08:35:36;;;;;;;5.00;2.33;;;;;;;22.15;63.45;97830.41;4998374;28;20032;-59
2023/08/11 08:38:03;;;;;;;3.92;2.30;;;;;;;22.19;62.50;97831.41;5017185;28;20054;-59
2023/08/11 08:40:31;;;;;;;6.10;2.53;;;;;;;22.20;62.98;97831.09;4998148;28;20034;-59
2023/08/11 08:42:57;;;;;;;4.13;2.40;;;;;;;22.30;64.35;97832.72;5003087;28;20042;-59
2023/08/11 08:45:25;;;;;;;4.10;2.20;;;;;;;22.40;62.69;97823.34;5010619;28;20417;-59
2023/08/11 08:47:52;;;;;;;4.20;2.30;;;;;;;22.45;62.81;97819.66;5018741;28;20067;-59
2023/08/11 08:50:23;;;;;;;19.65;5.70;;;;;;;22.57;63.54;97821.81;5009771;28;20047;-60
2023/08/11 08:52:51;;;;;;;12.63;5.00;;;;;;;22.57;63.44;97824.56;5005048;28;20123;-60
2023/08/11 08:55:18;;;;;;;7.35;3.20;;;;;;;22.60;61.46;97813.69;5009762;28;20130;-59
2023/08/11 08:57:46;;;;;;;6.15;2.65;;;;;;;22.63;61.38;97817.78;4996795;28;20054;-61
2023/08/11 09:00:14;;;;;;;5.70;2.67;;;;;;;22.72;62.05;97821.38;5004333;28;20620;-60
2023/08/11 09:02:42;;;;;;;5.82;2.80;;;;;;;22.95;61.26;97817.66;5014530;28;20042;-59
2023/08/11 09:05:09;;;;;;;7.03;3.30;;;;;;;23.06;59.87;97820.91;5009313;28;20506;-61
2023/08/11 09:07:35;;;;;;;4.28;2.70;;;;;;;23.16;59.12;97817.03;5012009;28;20051;-59
2023/08/11 09:10:02;;;;;;;4.97;2.67;;;;;;;23.20;60.21;97815.22;4999643;28;20042;-58
2023/08/11 09:12:29;;;;;;;5.32;2.50;;;;;;;23.34;60.13;97818.69;4989788;28;20050;-59
2023/08/11 09:14:56;;;;;;;6.32;2.88;;;;;;;23.41;58.64;97817.38;5013184;28;20518;-59
2023/08/11 09:17:24;;;;;;;4.50;2.75;;;;;;;23.35;58.52;97814.78;5015910;28;20040;-59
2023/08/11 09:19:52;;;;;;;7.53;2.80;;;;;;;23.28;58.86;97808.91;4999791;28;20050;-59
2023/08/11 09:22:25;;;;;;;4.97;3.00;;;;;;;23.39;59.56;97814.94;4994114;28;20074;-59
2023/08/11 09:24:53;;;;;;;4.90;2.63;;;;;;;23.42;59.10;97814.28;4987551;28;20625;-59
2023/08/11 09:27:21;;;;;;;8.95;2.90;;;;;;;23.38;58.83;97810.56;4986740;28;20044;-60
2023/08/11 09:29:49;;;;;;;3.90;2.40;;;;;;;23.42;59.19;97803.22;5014786;28;20046;-59
2023/08/11 09:32:16;;;;;;;6.47;2.60;;;;;;;23.49;60.24;97806.31;5018802;28;20068;-60
2023/08/11 09:34:43;;;;;;;4.88;2.95;;;;;;;23.69;60.73;97801.22;4997065;28;20043;-59
2023/08/11 09:37:10;;;;;;;4.10;2.22;;;;;;;23.78;59.34;97802.03;5007508;28;20037;-59
2023/08/11 09:39:37;;;;;;;7.65;2.80;;;;;;;23.83;59.46;97808.50;5001990;28;20066;-59
2023/08/11 09:42:04;;;;;;;6.45;2.63;;;;;;;23.87;59.60;97807.53;4984643;28;20117;-60
2023/08/11 09:44:30;;;;;;;5.65;2.90;;;;;;;23.97;59.96;97809.13;5024662;28;20053;-60
2023/08/11 09:46:57;;;;;;;7.22;2.80;;;;;;;24.15;59.78;97809.91;5018073;28;20129;-59
2023/08/11 09:49:24;;;;;;;8.40;3.10;;;;;;;24.13;58.50;97800.31;4992713;28;20394;-60
2023/08/11 09:51:54;;;;;;;6.05;2.60;;;;;;;24.13;59.67;97809.44;4985736;28;20040;-60
2023/08/11 09:54:21;;;;;;;5.25;2.67;;;;;;;24.18;58.77;97808.44;4999764;28;20033;-60
2023/08/11 09:56:49;;;;;;;6.80;2.80;;;;;;;24.23;60.17;97812.97;4993189;28;20042;-60
2023/08/11 09:59:19;;;;;;;5.18;2.80;;;;;;;24.18;58.74;97815.91;4991392;28;20058;-59
2023/08/11 10:01:47;;;;;;;6.18;2.85;;;;;;;24.12;59.72;97807.00;5005011;28;20045;-60
2023/08/11 10:04:37;;;;;;;6.35;2.50;;;;;;;24.24;59.76;97812.63;4995218;28;20034;-60
2023/08/11 10:07:10;;;;;;;5.53;3.00;;;;;;;24.41;59.31;97810.94;4992939;28;20453;-60
2023/08/11 10:09:38;;;;;;;5.85;2.72;;;;;;;24.50;59.45;97808.94;4995120;28;20053;-60
2023/08/11 10:12:06;;;;;;;4.05;2.55;;;;;;;24.53;58.03;97808.28;4981852;28;20038;-60
2023/08/11 10:14:36;;;;;;;5.25;2.80;;;;;;;24.52;58.30;97808.59;4992458;28;20053;-60
2023/08/11 10:17:03;;;;;;;4.38;2.85;;;;;;;24.66;59.16;97811.91;4996979;28;20577;-59
2023/08/11 10:19:30;;;;;;;5.32;2.90;;;;;;;24.69;58.12;97815.97;5005324;28;20503;-60
2023/08/11 10:21:57;;;;;;;5.20;2.83;;;;;;;24.65;57.99;97812.25;4979380;28;20039;-59
2023/08/11 10:24:26;;;;;;;7.15;3.00;;;;;;;24.58;58.19;97807.25;4980049;28;20149;-60
2023/08/11 10:26:53;;;;;;;6.38;3.03;;;;;;;24.70;58.25;97814.03;4987450;28;20060;-60
2023/08/11 10:29:21;;;;;;;5.22;2.70;;;;;;;24.85;57.92;97818.19;4984651;28;20090;-60
2023/08/11 10:31:57;;;;;;;6.70;2.72;;;;;;;24.93;58.29;97811.78;4992297;28;20068;-59
2023/08/11 10:34:25;;;;;;;4.43;2.50;;;;;;;24.89;56.82;97819.16;4975951;28;20034;-59
2023/08/11 10:36:57;;;;;;;4.97;2.83;;;;;;;24.86;56.90;97809.56;4994357;28;20053;-60
2023/08/11 10:39:24;;;;;;;4.93;2.75;;;;;;;24.97;57.72;97809.97;5008404;28;20126;-60
2023/08/11 10:41:51;;;;;;;4.57;2.55;;;;;;;25.09;57.49;97813.97;4977269;28;20052;-59
2023/08/11 10:44:19;;;;;;;5.05;2.70;;;;;;;25.20;57.75;97818.75;5021877;28;20051;-59
2023/08/11 10:46:48;;;;;;;5.85;2.80;;;;;;;25.23;57.34;97814.50;4973269;28;20031;-59
2023/08/11 10:49:14;;;;;;;5.13;2.78;;;;;;;25.27;56.37;97820.97;5011563;28;20044;-60
2023/08/11 10:51:41;;;;;;;3.75;2.22;;;;;;;25.26;54.71;97816.59;4975956;28;20073;-60
2023/08/11 10:54:11;;;;;;;5.95;2.70;;;;;;;25.29;56.34;97820.66;4975671;28;20045;-59
2023/08/11 10:56:42;;;;;;;3.85;2.70;;;;;;;25.29;55.85;97818.69;4975742;28;20674;-60
2023/08/11 10:59:21;;;;;;;;;;;;;;;25.32;56.66;97818.00;4978228;28;20413;-60
2023/08/11 11:01:50;;;;;;;6.50;2.72;;;;;;;25.45;55.87;97812.50;4996947;28;19928;-61
2023/08/11 11:04:19;;;;;;;4.30;2.45;;;;;;;25.41;56.15;97822.66;5000661;28;20480;-60
2023/08/11 11:06:48;;;;;;;5.32;2.70;;;;;;;25.40;54.72;97819.09;4989425;28;20052;-61
2023/08/11 11:09:15;;;;;;;4.65;2.63;;;;;;;25.54;54.91;97813.22;4992705;28;20043;-60
2023/08/11 11:11:44;;;;;;;12.00;3.33;;;;;;;25.53;53.69;97808.84;4967059;28;20058;-60
2023/08/11 11:14:12;;;;;;;7.28;2.85;;;;;;;25.66;53.83;97803.38;4952831;28;20043;-60
2023/08/11 11:16:40;;;;;;;6.50;2.65;;;;;;;25.67;52.24;97807.75;4988775;28;20043;-61
2023/08/11 11:19:08;;;;;;;7.45;2.45;;;;;;;25.64;52.64;97805.66;4993473;28;20088;-60
2023/08/11 11:21:35;;;;;;;4.45;2.50;;;;;;;25.80;52.83;97803.06;5011107;28;20042;-60
2023/08/11 11:24:02;;;;;;;3.83;2.30;;;;;;;25.86;51.82;97800.91;5019780;28;20126;-60
2023/08/11 11:26:31;;;;;;;6.18;2.20;;;;;;;25.89;52.12;97789.09;5009430;28;20044;-59
2023/08/11 11:29:00;;;;;;;7.32;2.58;;;;;;;26.07;52.69;97795.25;4996960;28;20070;-62
2023/08/11 11:31:30;;;;;;;3.67;2.00;;;;;;;26.13;51.38;97793.06;5008561;28;20047;-60